Time;durP1;ratioP1;P1;durP2;ratioP2;P2;SDS_P1;SDS_P2;PMS_P1;PMS_P2;Temp;Humidity;BMP_temperature;BMP_pressure;BME280_temperature;BME280_humidity;BME280_pressure;Samples;Min_cycle;Max_cycle;Signal;HPM_P1;HPM_P2
2022/08/19 00:01:36;;;;;;;9.98;6.00;;;;;;;15.09;100.00;101472.53;5053512;28;20040;-77
2022/08/19 00:04:05;;;;;;;8.43;5.40;;;;;;;15.04;100.00;101482.03;5053490;28;20029;-77
2022/08/19 00:06:30;;;;;;;9.07;5.72;;;;;;;15.03;100.00;101477.66;5052796;28;20025;-77
2022/08/19 00:08:57;;;;;;;9.27;5.53;;;;;;;14.98;100.00;101478.94;5053325;28;20056;-77
2022/08/19 00:11:23;;;;;;;7.82;4.97;;;;;;;14.95;100.00;101470.38;5053700;28;20039;-77
2022/08/19 00:13:49;;;;;;;9.70;6.35;;;;;;;14.95;100.00;101475.72;5053540;28;20083;-77
2022/08/19 00:16:19;;;;;;;11.52;6.10;;;;;;;14.95;100.00;101465.84;5053285;28;20432;-77
2022/08/19 00:18:44;;;;;;;9.02;5.93;;;;;;;14.95;100.00;101468.53;5053987;28;20071;-77
2022/08/19 00:21:09;;;;;;;8.32;5.28;;;;;;;14.92;100.00;101473.34;5052922;28;20060;-75
2022/08/19 00:23:36;;;;;;;8.35;5.53;;;;;;;14.89;100.00;101468.31;5053321;28;20036;-75
2022/08/19 00:26:03;;;;;;;9.65;6.68;;;;;;;14.87;100.00;101468.47;5053715;28;20478;-75
2022/08/19 00:28:29;;;;;;;10.18;5.75;;;;;;;14.84;100.00;101474.13;5052993;28;20533;-76
2022/08/19 00:30:55;;;;;;;10.10;6.13;;;;;;;14.84;100.00;101482.16;5052768;28;20127;-76
2022/08/19 00:33:21;;;;;;;8.65;6.07;;;;;;;14.80;100.00;101478.09;5053039;28;20140;-76
2022/08/19 00:35:46;;;;;;;8.95;5.53;;;;;;;14.79;100.00;101477.25;5052630;28;20133;-77
2022/08/19 00:38:12;;;;;;;10.98;5.50;;;;;;;14.77;100.00;101481.06;5053309;28;20033;-76
2022/08/19 00:40:37;;;;;;;13.85;6.72;;;;;;;14.78;100.00;101486.28;5053566;28;20033;-76
2022/08/19 00:43:10;;;;;;;11.23;6.38;;;;;;;14.76;100.00;101482.06;5053076;28;20116;-76
2022/08/19 00:45:36;;;;;;;9.35;5.65;;;;;;;14.73;100.00;101480.50;5053075;28;20107;-77
2022/08/19 00:48:05;;;;;;;7.93;5.40;;;;;;;14.72;100.00;101478.84;5053190;28;20041;-76
2022/08/19 00:50:32;;;;;;;12.05;7.13;;;;;;;14.74;100.00;101476.03;5052527;28;20033;-77
2022/08/19 00:52:59;;;;;;;12.70;7.22;;;;;;;14.76;100.00;101474.88;5053459;28;20363;-76
2022/08/19 00:55:28;;;;;;;11.82;7.47;;;;;;;14.84;100.00;101471.44;5052645;28;20513;-76
2022/08/19 00:58:03;;;;;;;14.00;8.73;;;;;;;14.98;100.00;101470.91;5052863;28;20025;-76
2022/08/19 01:00:29;;;;;;;10.70;7.38;;;;;;;15.09;100.00;101472.53;5052598;28;20036;-76
2022/08/19 01:02:55;;;;;;;10.25;6.50;;;;;;;15.11;100.00;101473.22;5053235;28;20044;-77
2022/08/19 01:05:27;;;;;;;16.67;7.78;;;;;;;15.16;100.00;101478.09;5051992;28;20079;-77
2022/08/19 01:07:54;;;;;;;13.68;7.95;;;;;;;15.19;100.00;101475.13;5052633;28;20029;-77
2022/08/19 01:10:24;;;;;;;16.20;8.75;;;;;;;15.27;100.00;101475.19;5052402;28;20029;-77
2022/08/19 01:12:52;;;;;;;14.25;7.32;;;;;;;15.30;100.00;101479.38;5052789;28;20033;-77
2022/08/19 01:15:22;;;;;;;9.55;6.45;;;;;;;15.26;100.00;101481.56;5052231;28;20037;-77
2022/08/19 01:17:48;;;;;;;10.27;6.85;;;;;;;15.23;100.00;101479.19;5054536;28;20076;-77
2022/08/19 01:20:19;;;;;;;8.50;5.97;;;;;;;15.21;100.00;101483.00;5056608;28;20072;-77
2022/08/19 01:22:48;;;;;;;11.63;7.60;;;;;;;15.19;100.00;101487.69;5056980;28;20037;-77
2022/08/19 01:25:17;;;;;;;9.88;6.50;;;;;;;15.14;100.00;101488.97;5056535;28;20033;-77
2022/08/19 01:27:45;;;;;;;12.07;7.10;;;;;;;15.13;100.00;101491.81;5056375;28;20056;-76
2022/08/19 01:30:23;;;;;;;12.82;7.38;;;;;;;15.12;100.00;101484.75;5056172;28;20107;-76
2022/08/19 01:32:50;;;;;;;21.40;10.05;;;;;;;15.21;100.00;101483.00;5056524;28;20029;-76
2022/08/19 01:35:17;;;;;;;12.63;7.88;;;;;;;15.21;100.00;101485.69;5056833;28;20029;-78
2022/08/19 01:37:55;;;;;;;10.45;6.80;;;;;;;15.20;100.00;101478.63;5056397;28;20100;-76
2022/08/19 01:40:25;;;;;;;15.10;7.65;;;;;;;15.19;100.00;101482.31;5056363;28;20051;-76
2022/08/19 01:42:53;;;;;;;16.15;9.07;;;;;;;15.18;100.00;101481.47;5056120;28;20037;-75
2022/08/19 01:45:21;;;;;;;12.20;7.63;;;;;;;15.16;100.00;101484.28;5056260;28;20040;-75
2022/08/19 01:47:46;;;;;;;20.13;10.23;;;;;;;15.12;100.00;101479.41;5055331;28;20034;-75
2022/08/19 01:50:13;;;;;;;23.63;11.55;;;;;;;15.13;100.00;101489.13;5056560;28;20037;-75
2022/08/19 01:52:40;;;;;;;23.50;11.93;;;;;;;15.16;100.00;101484.28;5055539;28;20025;-76
2022/08/19 01:55:08;;;;;;;22.75;12.13;;;;;;;15.18;100.00;101489.50;5055912;28;20041;-75
2022/08/19 01:57:33;;;;;;;21.70;11.70;;;;;;;15.18;100.00;101488.66;5055885;28;20489;-75
2022/08/19 01:59:59;;;;;;;23.20;13.35;;;;;;;15.18;100.00;101484.13;5054354;28;20033;-75
2022/08/19 02:02:25;;;;;;;22.98;12.90;;;;;;;15.16;100.00;101486.16;5055709;28;20479;-76
2022/08/19 02:04:50;;;;;;;16.80;10.98;;;;;;;15.14;100.00;101480.94;5056073;28;20059;-76
2022/08/19 02:07:20;;;;;;;29.48;14.82;;;;;;;15.12;100.00;101474.91;5055986;28;20068;-75
2022/08/19 02:09:45;;;;;;;16.83;11.02;;;;;;;15.07;100.00;101477.19;5055599;28;20025;-75
2022/08/19 02:12:11;;;;;;;22.38;12.63;;;;;;;15.03;100.00;101481.16;5055417;28;20070;-77
2022/08/19 02:14:36;;;;;;;18.58;11.32;;;;;;;15.00;100.00;101484.13;5054679;28;20039;-77
2022/08/19 02:17:02;;;;;;;23.63;13.55;;;;;;;14.96;100.00;101486.28;5055468;28;20336;-77
2022/08/19 02:19:28;;;;;;;25.77;14.63;;;;;;;14.95;100.00;101489.13;5054221;28;20039;-76
2022/08/19 02:21:53;;;;;;;31.63;16.65;;;;;;;14.92;100.00;101486.75;5055489;28;20033;-77
2022/08/19 02:24:18;;;;;;;24.77;13.40;;;;;;;14.89;100.00;101477.19;5055548;28;20064;-76
2022/08/19 02:26:44;;;;;;;37.40;20.05;;;;;;;14.88;100.00;101480.84;5055465;28;20029;-77
2022/08/19 02:29:09;;;;;;;34.67;18.35;;;;;;;14.90;100.00;101475.31;5055953;28;20033;-77
2022/08/19 02:31:35;;;;;;;55.03;25.40;;;;;;;14.92;100.00;101470.69;5055562;28;20047;-76
2022/08/19 02:34:01;;;;;;;42.97;20.95;;;;;;;14.94;100.00;101482.06;5055082;28;20374;-76
2022/08/19 02:36:27;;;;;;;42.28;21.70;;;;;;;14.90;100.00;101481.56;5055020;28;20083;-76
2022/08/19 02:38:53;;;;;;;38.97;20.45;;;;;;;14.89;100.00;101476.34;5055044;28;20025;-77
2022/08/19 02:41:22;;;;;;;43.15;20.92;;;;;;;14.87;100.00;101473.81;5055093;28;20040;-76
2022/08/19 02:43:47;;;;;;;61.83;27.15;;;;;;;14.92;100.00;101476.88;5055011;28;20040;-76
2022/08/19 02:46:26;;;;;;;42.25;19.67;;;;;;;14.95;100.00;101481.09;5055249;28;20057;-76
2022/08/19 02:48:56;;;;;;;58.17;24.80;;;;;;;14.99;100.00;101477.94;5054500;28;20364;-76
2022/08/19 02:51:38;;;;;;;42.28;21.83;;;;;;;15.03;100.00;101466.94;5054886;28;20029;-74
2022/08/19 02:54:04;;;;;;;57.03;26.98;;;;;;;15.04;100.00;101463.25;5054346;28;20106;-75
2022/08/19 02:56:30;;;;;;;72.05;29.80;;;;;;;15.05;100.00;101456.88;5054806;28;20033;-75
2022/08/19 02:58:57;;;;;;;56.75;26.13;;;;;;;15.07;100.00;101444.19;5055000;28;20040;-75
2022/08/19 03:01:32;;;;;;;56.90;23.40;;;;;;;15.09;100.00;101442.19;5054420;28;20029;-76
2022/08/19 03:04:00;;;;;;;64.25;27.27;;;;;;;15.13;100.00;101443.56;5054931;28;20032;-75
2022/08/19 03:06:26;;;;;;;50.33;23.80;;;;;;;15.18;100.00;101441.25;5054641;28;20033;-75
2022/08/19 03:08:52;;;;;;;54.20;25.30;;;;;;;15.19;100.00;101442.13;5054519;28;20033;-75
2022/08/19 03:11:21;;;;;;;62.00;26.55;;;;;;;15.19;100.00;101440.28;5054524;28;20039;-75
2022/08/19 03:13:50;;;;;;;75.18;30.48;;;;;;;15.22;100.00;101439.97;5054350;28;20029;-76
2022/08/19 03:16:16;;;;;;;68.57;29.75;;;;;;;15.24;100.00;101442.47;5054446;28;20029;-75
2022/08/19 03:18:42;;;;;;;73.80;30.02;;;;;;;15.25;100.00;101439.66;5054057;28;20497;-77
2022/08/19 03:21:08;;;;;;;80.30;31.70;;;;;;;15.29;100.00;101438.34;5054691;28;20029;-75
2022/08/19 03:23:34;;;;;;;71.13;29.77;;;;;;;15.33;100.00;101445.09;5054550;28;20048;-75
2022/08/19 03:26:04;;;;;;;83.95;34.03;;;;;;;15.35;100.00;101447.63;5054098;28;20471;-75
2022/08/19 03:28:30;;;;;;;79.07;32.72;;;;;;;15.39;100.00;101442.75;5054171;28;20071;-75
2022/08/19 03:31:01;;;;;;;90.50;35.42;;;;;;;15.42;100.00;101442.44;5053634;28;20064;-75
2022/08/19 03:33:27;;;;;;;93.25;35.20;;;;;;;15.44;100.00;101438.63;5053797;28;20066;-75
2022/08/19 03:36:08;;;;;;;100.57;37.28;;;;;;;15.47;100.00;101435.63;5053620;28;20029;-75
2022/08/19 03:38:40;;;;;;;90.57;34.80;;;;;;;15.48;100.00;101434.63;5054235;28;20051;-75
2022/08/19 03:41:06;;;;;;;;;;;;;;;15.46;100.00;101435.78;5053544;28;20439;-75
2022/08/19 03:43:34;;;;;;;84.32;32.90;;;;;;;15.47;100.00;101432.94;5053821;28;20394;-75
2022/08/19 03:46:03;;;;;;;76.22;32.13;;;;;;;15.49;100.00;101436.31;5053102;28;20049;-76
2022/08/19 03:48:29;;;;;;;86.55;33.47;;;;;;;15.51;100.00;101438.84;5052836;28;20025;-75
2022/08/19 03:50:55;;;;;;;93.47;36.65;;;;;;;15.52;100.00;101448.56;5052745;28;20135;-76
2022/08/19 03:53:20;;;;;;;81.90;34.10;;;;;;;15.52;100.00;101453.94;5051357;28;20064;-75
2022/08/19 03:55:45;;;;;;;107.60;39.45;;;;;;;15.58;100.00;101444.41;5052799;28;20029;-76
2022/08/19 03:58:11;;;;;;;108.68;39.85;;;;;;;15.61;100.00;101452.97;5051180;28;20493;-75
2022/08/19 04:00:36;;;;;;;104.75;38.40;;;;;;;15.61;100.00;101446.78;5052619;28;20482;-76
2022/08/19 04:03:02;;;;;;;97.03;36.90;;;;;;;15.58;100.00;101444.41;5052706;28;20060;-77
2022/08/19 04:05:29;;;;;;;102.43;39.92;;;;;;;15.56;100.00;101446.44;5052656;28;20029;-76
2022/08/19 04:07:56;;;;;;;120.03;41.50;;;;;;;15.54;100.00;101449.28;5052603;28;20033;-77
2022/08/19 04:10:22;;;;;;;108.13;39.35;;;;;;;15.55;100.00;101455.47;5052985;28;20104;-76
2022/08/19 04:12:47;;;;;;;133.45;43.20;;;;;;;15.55;100.00;101464.34;5052491;28;20176;-76
2022/08/19 04:15:12;;;;;;;140.82;45.55;;;;;;;15.51;100.00;101469.19;5051470;28;20049;-76
2022/08/19 04:17:38;;;;;;;139.80;47.78;;;;;;;15.51;100.00;101473.72;5052166;28;20112;-76
2022/08/19 04:20:03;;;;;;;158.57;49.97;;;;;;;15.54;100.00;101468.03;5051125;28;20069;-76
2022/08/19 04:22:29;;;;;;;149.52;48.22;;;;;;;15.52;100.00;101464.66;5052523;28;20459;-76
2022/08/19 04:24:55;;;;;;;171.43;50.95;;;;;;;15.57;100.00;101464.19;5052273;28;20043;-76
2022/08/19 04:27:20;;;;;;;174.73;51.28;;;;;;;15.64;100.00;101460.72;5051600;28;20132;-77
2022/08/19 04:29:47;;;;;;;163.95;51.03;;;;;;;15.73;100.00;101471.50;5051404;28;20048;-77
2022/08/19 04:32:14;;;;;;;166.07;53.25;;;;;;;15.79;100.00;101468.22;5052078;28;20485;-76
2022/08/19 04:34:42;;;;;;;164.90;51.53;;;;;;;15.85;100.00;101463.09;5052193;28;20036;-75
2022/08/19 04:37:11;;;;;;;167.30;51.08;;;;;;;15.91;100.00;101461.59;5051970;28;20029;-76
2022/08/19 04:42:38;;;;;;;163.18;50.03;;;;;;;16.01;100.00;101454.25;5051915;28;20064;-75
2022/08/19 04:45:11;;;;;;;146.57;47.45;;;;;;;16.04;100.00;101455.78;5013203;28;1087235;-75
2022/08/19 04:47:37;;;;;;;155.52;50.28;;;;;;;16.11;100.00;101459.53;5053243;28;20044;-75
2022/08/19 04:50:04;;;;;;;160.70;48.53;;;;;;;16.17;100.00;101458.88;5052911;28;20048;-75
2022/08/19 04:52:31;;;;;;;133.02;47.15;;;;;;;16.22;100.00;101459.22;5052346;28;20106;-75
2022/08/19 04:54:57;;;;;;;131.32;46.45;;;;;;;16.27;100.00;101458.75;5051383;28;20039;-75
2022/08/19 04:57:22;;;;;;;139.95;45.50;;;;;;;16.32;100.00;101453.75;5052632;28;20029;-75
2022/08/19 04:59:48;;;;;;;130.80;45.45;;;;;;;16.37;100.00;101464.00;5053133;28;20421;-74
2022/08/19 05:02:14;;;;;;;123.82;45.05;;;;;;;16.43;100.00;101463.34;5052700;28;20041;-75
2022/08/19 05:04:39;;;;;;;124.03;43.97;;;;;;;16.45;100.00;101464.03;5052417;28;20068;-75
2022/08/19 05:07:06;;;;;;;115.25;41.85;;;;;;;16.49;100.00;101467.22;5052524;28;20099;-75
2022/08/19 05:09:32;;;;;;;112.40;41.85;;;;;;;16.54;100.00;101467.56;5052594;28;20140;-74
2022/08/19 05:11:57;;;;;;;104.70;40.38;;;;;;;16.55;100.00;101471.94;5052196;28;20523;-75
2022/08/19 05:14:23;;;;;;;110.45;40.67;;;;;;;16.57;100.00;101476.16;5052391;28;20033;-74
2022/08/19 05:16:48;;;;;;;105.32;38.95;;;;;;;16.61;100.00;101476.66;5052428;28;20029;-74
2022/08/19 05:24:43;;;;;;;92.53;35.22;;;;;;;16.77;100.00;101478.56;5053080;28;20087;-74
2022/08/19 05:27:09;;;;;;;86.07;35.05;;;;;;;16.84;100.00;101474.22;5051323;28;20033;-75
2022/08/19 05:29:34;;;;;;;82.85;33.65;;;;;;;16.90;100.00;101470.88;5051808;28;20068;-74
2022/08/19 05:32:02;;;;;;;85.00;33.83;;;;;;;16.96;100.00;101463.16;5052304;28;20029;-75
2022/08/19 05:34:27;;;;;;;88.13;34.72;;;;;;;17.05;100.00;101467.56;5052380;28;20496;-74
2022/08/19 05:36:56;;;;;;;74.22;31.48;;;;;;;17.12;100.00;101463.16;5051154;28;20039;-75
2022/08/19 05:39:24;;;;;;;71.93;30.58;;;;;;;17.17;100.00;101468.91;5050947;28;20029;-74
2022/08/19 05:41:54;;;;;;;75.93;30.75;;;;;;;17.20;100.00;101465.06;5052016;28;20041;-74
2022/08/19 05:44:21;;;;;;;78.35;31.45;;;;;;;17.24;100.00;101453.78;5052564;28;20060;-74
2022/08/19 05:46:52;;;;;;;82.25;30.38;;;;;;;17.30;100.00;101451.41;5052050;28;20091;-75
2022/08/19 05:49:19;;;;;;;79.32;31.45;;;;;;;17.37;100.00;101449.75;5052689;28;20364;-75
2022/08/19 05:51:44;;;;;;;64.57;29.35;;;;;;;17.46;100.00;101448.72;5051927;28;20025;-74
2022/08/19 05:54:13;;;;;;;67.93;28.27;;;;;;;17.53;100.00;101452.41;5051997;28;20368;-74
2022/08/19 05:56:42;;;;;;;67.75;27.77;;;;;;;17.61;100.00;101459.63;5052158;28;20029;-75
2022/08/19 05:59:11;;;;;;;60.17;26.92;;;;;;;17.68;100.00;101454.41;5052192;28;20029;-77
2022/08/19 06:01:41;;;;;;;66.60;27.50;;;;;;;17.75;100.00;101467.00;5052401;28;20036;-74
2022/08/19 06:04:07;;;;;;;64.18;24.88;;;;;;;17.86;100.00;101473.88;5053740;28;20033;-73
2022/08/19 06:06:34;;;;;;;53.13;25.77;;;;;;;17.88;100.00;101474.53;5055588;28;20482;-74
2022/08/19 06:09:04;;;;;;;52.72;23.40;;;;;;;17.94;100.00;101464.97;5055608;28;20111;-73
2022/08/19 06:11:32;;;;;;;53.70;24.50;;;;;;;17.97;100.00;101470.88;5055173;28;20033;-74
2022/08/19 06:14:01;;;;;;;51.88;23.08;;;;;;;18.02;100.00;101467.66;5055654;28;20389;-74
2022/08/19 06:16:27;;;;;;;47.30;22.40;;;;;;;18.07;100.00;101465.28;5055481;28;20024;-74
2022/08/19 06:18:54;;;;;;;49.25;23.15;;;;;;;18.19;100.00;101457.66;5055689;28;20044;-73
2022/08/19 06:21:24;;;;;;;46.90;21.98;;;;;;;18.29;100.00;101461.00;5055386;28;20040;-74
2022/08/19 06:23:51;;;;;;;41.15;21.15;;;;;;;18.41;100.00;101466.00;5055748;28;20086;-74
2022/08/19 06:26:18;;;;;;;45.83;20.27;;;;;;;18.54;100.00;101462.72;5055459;28;20021;-74
2022/08/19 06:28:46;;;;;;;41.08;19.63;;;;;;;18.71;100.00;101460.78;5055789;28;20108;-75
2022/08/19 06:31:21;;;;;;;46.40;20.23;;;;;;;18.81;100.00;101464.06;5055242;28;20029;-73
2022/08/19 06:33:48;;;;;;;47.60;19.92;;;;;;;18.94;100.00;101460.81;5055751;28;20029;-71
2022/08/19 06:36:19;;;;;;;36.28;18.42;;;;;;;19.11;100.00;101456.13;5055137;28;20033;-71
2022/08/19 06:38:44;;;;;;;40.70;18.33;;;;;;;19.25;100.00;101459.94;5055663;28;20029;-73
2022/08/19 06:41:09;;;;;;;42.45;18.35;;;;;;;19.44;100.00;101464.00;5055053;28;20037;-73
2022/08/19 06:43:35;;;;;;;40.55;17.85;;;;;;;19.64;100.00;101462.41;5055087;28;20087;-72
2022/08/19 06:46:03;;;;;;;36.30;16.92;;;;;;;19.88;100.00;101457.81;5054882;28;20052;-73
2022/08/19 06:48:29;;;;;;;37.47;17.63;;;;;;;20.01;100.00;101460.72;5054686;28;20025;-73
2022/08/19 06:50:54;;;;;;;32.90;16.33;;;;;;;20.13;100.00;101469.19;5054781;28;20044;-71
2022/08/19 06:53:19;;;;;;;38.75;16.33;;;;;;;20.26;100.00;101455.84;5054920;28;20446;-74
2022/08/19 06:55:45;;;;;;;41.95;15.80;;;;;;;20.42;100.00;101456.66;5053571;28;20033;-72
2022/08/19 06:58:11;;;;;;;33.75;15.23;;;;;;;20.63;100.00;101453.19;5054711;28;20040;-74
2022/08/19 07:00:36;;;;;;;32.28;14.85;;;;;;;20.81;100.00;101457.34;5054680;28;20028;-74
2022/08/19 07:03:02;;;;;;;30.52;14.88;;;;;;;20.83;100.00;101458.00;5054583;28;20095;-74
2022/08/19 07:05:27;;;;;;;28.83;14.00;;;;;;;20.76;100.00;101457.91;5054056;28;20033;-75
2022/08/19 07:07:53;;;;;;;35.85;14.38;;;;;;;20.66;100.00;101458.25;5054328;28;20024;-75
2022/08/19 07:10:19;;;;;;;30.92;14.60;;;;;;;20.54;100.00;101454.31;5054730;28;20025;-75
2022/08/19 07:12:44;;;;;;;34.42;14.38;;;;;;;20.47;100.00;101456.09;5053998;28;20033;-73
2022/08/19 07:15:11;;;;;;;31.67;15.02;;;;;;;20.33;100.00;101468.59;5053457;28;20107;-72
2022/08/19 07:17:39;;;;;;;33.47;13.30;;;;;;;20.21;100.00;101470.94;5054145;28;20434;-73
2022/08/19 07:20:06;;;;;;;28.70;14.13;;;;;;;20.17;100.00;101464.22;5053872;28;20094;-73
2022/08/19 07:22:35;;;;;;;27.85;13.25;;;;;;;20.17;100.00;101473.19;5054443;28;20024;-75
2022/08/19 07:25:03;;;;;;;28.83;13.77;;;;;;;20.29;100.00;101476.25;5054094;28;20120;-72
2022/08/19 07:27:28;;;;;;;40.97;13.73;;;;;;;20.40;100.00;101477.66;5054206;28;20117;-73
2022/08/19 07:29:54;;;;;;;37.35;13.30;;;;;;;20.55;100.00;101483.84;5054363;28;20534;-73
2022/08/19 07:32:19;;;;;;;29.27;12.43;;;;;;;20.68;100.00;101476.97;5054074;28;20503;-74
2022/08/19 07:34:45;;;;;;;29.60;12.75;;;;;;;20.75;100.00;101489.53;5054153;28;20047;-73
2022/08/19 07:37:10;;;;;;;26.48;10.55;;;;;;;20.74;100.00;101481.63;5054272;28;20482;-73
2022/08/19 07:39:37;;;;;;;21.83;10.05;;;;;;;20.79;100.00;101479.16;5054007;28;20037;-73
2022/08/19 07:42:06;;;;;;;18.15;8.80;;;;;;;20.81;100.00;101487.94;5053959;28;20071;-75
2022/08/19 07:44:33;;;;;;;18.52;7.03;;;;;;;20.77;100.00;101473.94;5054590;28;20453;-74
2022/08/19 07:46:59;;;;;;;20.17;7.45;;;;;;;20.82;100.00;101480.66;5053364;28;20124;-75
2022/08/19 07:49:25;;;;;;;11.30;6.65;;;;;;;20.83;100.00;101480.47;5053741;28;20037;-74
2022/08/19 07:52:01;;;;;;;20.65;6.82;;;;;;;20.94;100.00;101481.81;5054024;28;20440;-73
2022/08/19 07:54:30;;;;;;;15.80;6.65;;;;;;;21.11;100.00;101482.44;5053741;28;20482;-73
2022/08/19 07:56:56;;;;;;;15.93;6.03;;;;;;;21.39;100.00;101479.75;5053681;28;20107;-73
2022/08/19 07:59:22;;;;;;;11.25;5.43;;;;;;;21.59;99.80;101482.66;5053717;28;20037;-72
2022/08/19 08:01:49;;;;;;;12.75;5.20;;;;;;;21.81;96.81;101477.16;5053278;28;20036;-74
2022/08/19 08:09:44;;;;;;;9.50;4.38;;;;;;;22.57;90.34;101486.34;5053841;28;20493;-73
2022/08/19 08:12:14;;;;;;;10.48;4.80;;;;;;;22.68;89.31;101486.59;5054063;28;20045;-73
2022/08/19 08:14:49;;;;;;;10.30;4.93;;;;;;;22.92;88.35;101495.22;5053349;28;20029;-72
2022/08/19 08:17:16;;;;;;;12.40;4.90;;;;;;;23.11;86.34;101490.06;5053719;28;20028;-72
2022/08/19 08:19:43;;;;;;;10.00;4.55;;;;;;;23.17;82.73;101495.50;5053273;28;20111;-72
2022/08/19 08:23:22;;;;;;;7.72;4.35;;;;;;;23.04;82.69;101496.28;5053266;28;20169;-73
2022/08/19 08:25:06;;;;;;;12.27;4.85;;;;;;;23.20;82.95;101500.50;5053012;28;20473;-74
2022/08/19 08:27:31;;;;;;;8.32;4.22;;;;;;;23.86;81.41;101501.56;5052750;28;20037;-73
2022/08/19 08:29:57;;;;;;;7.45;4.35;;;;;;;24.46;75.50;101500.56;5053228;28;20211;-73
2022/08/19 08:32:23;;;;;;;10.77;4.53;;;;;;;24.31;77.39;101500.81;5052929;28;20506;-73
2022/08/19 08:34:48;;;;;;;14.43;4.95;;;;;;;24.11;77.19;101509.88;5053207;28;20061;-75
2022/08/19 08:37:14;;;;;;;10.18;3.70;;;;;;;23.86;80.68;101511.63;5052677;28;20502;-76
2022/08/19 08:39:39;;;;;;;11.73;4.00;;;;;;;23.53;82.08;101507.00;5052966;28;20064;-76
2022/08/19 08:42:17;;;;;;;12.48;4.32;;;;;;;23.12;82.30;101506.13;5053184;28;20116;-74
2022/08/19 08:45:00;;;;;;;12.52;4.38;;;;;;;22.72;84.00;101516.84;5052964;28;20029;-75
2022/08/19 08:47:32;;;;;;;11.18;4.25;;;;;;;22.71;87.89;101513.31;5053338;28;20040;-75
2022/08/19 08:50:06;;;;;;;18.17;4.57;;;;;;;23.32;84.61;101505.31;5053183;28;20025;-75
2022/08/19 08:52:42;;;;;;;14.80;4.65;;;;;;;24.08;80.14;101515.75;5052193;28;20021;-75
2022/08/19 08:55:16;;;;;;;14.77;4.60;;;;;;;24.20;76.09;101510.50;5053249;28;20024;-75
2022/08/19 08:57:48;;;;;;;10.07;4.43;;;;;;;23.84;75.70;101513.66;5053075;28;20032;-74
2022/08/19 09:00:22;;;;;;;11.85;3.90;;;;;;;23.29;80.43;101508.44;5052919;28;20483;-75
2022/08/19 09:02:48;;;;;;;11.75;3.65;;;;;;;22.84;83.11;101509.81;5053006;28;20060;-75
2022/08/19 09:05:13;;;;;;;18.23;4.65;;;;;;;22.43;85.11;101515.28;5052886;28;20119;-75
2022/08/19 09:07:49;;;;;;;8.98;3.92;;;;;;;22.10;89.57;101526.75;5052747;28;20033;-75
2022/08/19 09:10:22;;;;;;;12.73;3.95;;;;;;;21.97;90.43;101511.25;5052823;28;20474;-76
2022/08/19 09:12:59;;;;;;;9.10;3.75;;;;;;;22.02;93.07;101519.63;5052579;28;20056;-75
2022/08/19 09:15:39;;;;;;;9.35;4.07;;;;;;;22.19;88.65;101520.13;5053240;28;20040;-76
2022/08/19 09:18:06;;;;;;;8.23;3.70;;;;;;;22.42;88.56;101510.91;5053094;28;20035;-73
2022/08/19 09:20:32;;;;;;;9.85;3.60;;;;;;;23.33;85.25;101526.00;5052367;28;20800;-75
2022/08/19 09:22:58;;;;;;;8.35;3.10;;;;;;;24.54;76.97;101519.38;5051919;28;20025;-72
2022/08/19 09:25:24;;;;;;;7.82;3.53;;;;;;;25.19;71.11;101523.84;5052749;28;20478;-74
2022/08/19 09:27:53;;;;;;;12.35;3.50;;;;;;;25.56;69.76;101526.75;5052177;28;20079;-75
2022/08/19 09:30:23;;;;;;;10.02;3.75;;;;;;;26.03;68.13;101526.31;5052715;28;20085;-75
2022/08/19 09:32:49;;;;;;;8.65;3.85;;;;;;;26.24;65.41;101527.78;5052060;28;20087;-74
2022/08/19 09:35:15;;;;;;;9.57;3.25;;;;;;;26.08;68.58;101526.50;5052267;28;20039;-75
2022/08/19 09:37:42;;;;;;;8.88;3.65;;;;;;;26.27;66.99;101531.94;5052182;28;20033;-73
2022/08/19 09:40:08;;;;;;;8.35;3.15;;;;;;;26.20;65.12;101535.59;5055599;28;20025;-71
2022/08/19 09:42:33;;;;;;;10.05;2.78;;;;;;;25.50;66.87;101535.81;5056010;28;20068;-72
2022/08/19 09:44:59;;;;;;;7.10;3.33;;;;;;;24.74;70.99;101532.09;5055655;28;20439;-72
2022/08/19 09:47:24;;;;;;;8.43;2.80;;;;;;;24.17;74.31;101539.97;5056885;28;20040;-78
2022/08/19 09:49:50;;;;;;;8.40;3.30;;;;;;;23.90;74.91;101543.59;5056051;28;20039;-78
2022/08/19 09:52:16;;;;;;;6.95;2.70;;;;;;;23.86;78.58;101538.78;5055529;28;20041;-78
2022/08/19 09:54:41;;;;;;;7.68;3.08;;;;;;;24.30;76.50;101537.22;5055785;28;20056;-82
2022/08/19 09:57:07;;;;;;;7.05;2.67;;;;;;;24.42;73.44;101540.09;5055923;28;20033;-75
2022/08/19 09:59:33;;;;;;;13.18;2.92;;;;;;;24.35;74.17;101542.00;5055850;28;20112;-75
2022/08/19 10:01:59;;;;;;;7.85;3.55;;;;;;;25.43;69.76;101532.31;5055646;28;20044;-74
2022/08/19 10:05:47;;;;;;;8.15;3.70;;;;;;;27.10;62.23;101533.22;5054456;28;20033;-76
2022/08/19 10:07:10;;;;;;;8.98;3.35;;;;;;;29.42;53.01;101530.84;5055259;28;20045;-75
2022/08/19 10:09:35;;;;;;;11.65;2.80;;;;;;;29.41;52.08;101531.09;5055617;28;20037;-75
2022/08/19 10:12:02;;;;;;;6.35;2.97;;;;;;;28.56;53.60;101542.66;5055345;28;20127;-75
2022/08/19 10:14:28;;;;;;;12.13;3.08;;;;;;;28.01;55.03;101543.13;5055524;28;20033;-76
2022/08/19 10:16:53;;;;;;;5.88;2.70;;;;;;;28.15;56.74;101534.41;5055507;28;20036;-76
2022/08/19 10:19:21;;;;;;;9.15;2.40;;;;;;;29.30;54.65;101530.09;5055268;28;20020;-76
2022/08/19 10:21:46;;;;;;;3.78;2.22;;;;;;;29.71;47.69;101528.84;5055263;28;20064;-78
2022/08/19 10:24:12;;;;;;;5.47;2.03;;;;;;;29.18;49.34;101536.44;5055304;28;20033;-77
2022/08/19 10:26:41;;;;;;;7.22;2.25;;;;;;;28.07;54.84;101537.50;5055459;28;20025;-78
2022/08/19 10:29:07;;;;;;;6.95;2.40;;;;;;;26.82;59.72;101537.38;5055354;28;20031;-75
2022/08/19 10:31:33;;;;;;;5.63;2.08;;;;;;;25.76;63.21;101532.00;5055195;28;20028;-74
2022/08/19 10:34:00;;;;;;;5.53;2.13;;;;;;;24.97;69.45;101540.50;5054998;28;20112;-76
2022/08/19 10:36:34;;;;;;;6.10;2.00;;;;;;;24.52;71.55;101537.78;5054969;28;20123;-75
2022/08/19 10:39:02;;;;;;;5.00;1.88;;;;;;;24.02;73.18;101545.66;5055720;28;20029;-76
2022/08/19 10:41:31;;;;;;;4.07;1.88;;;;;;;23.70;76.05;101543.56;5055409;28;20056;-75
2022/08/19 10:43:59;;;;;;;8.13;2.03;;;;;;;23.60;77.03;101540.41;5054722;28;20029;-74
2022/08/19 10:46:27;;;;;;;7.07;2.33;;;;;;;23.63;76.06;101541.88;5054867;28;20048;-74
2022/08/19 10:48:53;;;;;;;6.28;2.38;;;;;;;23.22;78.58;101539.13;5054711;28;20051;-76
2022/08/19 10:54:04;;;;;;;3.22;1.75;;;;;;;22.98;83.25;101540.53;5054667;28;20399;-76
2022/08/19 10:59:15;;;;;;;6.57;1.75;;;;;;;23.46;81.33;101536.03;5054574;28;20048;-77
2022/08/19 11:01:44;;;;;;;5.53;2.00;;;;;;;23.53;79.81;101543.16;5054460;28;20041;-76
2022/08/19 11:04:11;;;;;;;5.55;1.70;;;;;;;23.56;79.98;101536.47;5054311;28;20033;-75
2022/08/19 11:06:38;;;;;;;6.88;2.58;;;;;;;23.47;78.45;101535.84;5054941;28;20039;-76
2022/08/19 11:09:05;;;;;;;5.88;1.90;;;;;;;23.36;79.25;101536.44;5054009;28;20398;-75
2022/08/19 11:11:31;;;;;;;4.53;1.85;;;;;;;23.31;80.41;101538.94;5054670;28;20029;-75
2022/08/19 11:13:57;;;;;;;4.20;1.95;;;;;;;23.32;81.09;101541.47;5054510;28;20052;-76
2022/08/19 11:16:26;;;;;;;4.40;1.60;;;;;;;23.31;80.33;101531.63;5053882;28;20467;-76
2022/08/19 11:18:54;;;;;;;3.70;1.58;;;;;;;23.29;79.74;101538.31;5054252;28;20036;-73
2022/08/19 11:21:25;;;;;;;2.90;1.80;;;;;;;23.27;79.37;101541.22;5054150;28;20025;-72
2022/08/19 11:23:54;;;;;;;3.78;1.70;;;;;;;23.20;80.57;101535.81;5053886;28;20033;-75
2022/08/19 11:26:21;;;;;;;3.83;1.65;;;;;;;23.06;82.18;101543.06;5054041;28;20049;-74
2022/08/19 11:28:47;;;;;;;3.47;2.05;;;;;;;23.11;82.23;101544.31;5054677;28;20068;-73
2022/08/19 11:31:18;;;;;;;3.92;1.70;;;;;;;23.18;81.77;101546.00;5052718;28;20529;-73